Time;durP1;ratioP1;P1;durP2;ratioP2;P2;SDS_P1;SDS_P2;PMS_P1;PMS_P2;Temp;Humidity;BMP_temperature;BMP_pressure;BME280_temperature;BME280_humidity;BME280_pressure;Samples;Min_cycle;Max_cycle;Signal;HPM_P1;HPM_P2
2023/07/08 00:00:39;;;;;;;;;;;;;;;;;;7388626;19;19951;-69
2023/07/08 00:03:04;;;;;;;;;;;;;;;;;;7368438;19;19915;-69
2023/07/08 00:05:29;;;;;;;;;;;;;;;;;;7366710;19;19923;-69
2023/07/08 00:07:54;;;;;;;;;;;;;;;;;;7366977;19;19944;-70
2023/07/08 00:10:21;;;;;;;;;;;;;;;;;;7366250;19;19979;-70
2023/07/08 00:12:47;;;;;;;;;;;;;;;;;;7364507;19;19919;-69
2023/07/08 00:15:13;;;;;;;;;;;;;;;;;;7387709;19;20405;-69
2023/07/08 00:17:38;;;;;;;;;;;;;;;;;;7363392;19;19944;-70
2023/07/08 00:20:14;;;;;;;;;;;;;;;;;;7365062;19;19923;-70
2023/07/08 00:22:40;;;;;;;;;;;;;;;;;;7368430;19;19918;-69
2023/07/08 00:25:06;;;;;;;;;;;;;;;;;;7366559;19;19942;-69
2023/07/08 00:27:31;;;;;;;;;;;;;;;;;;7387867;19;19923;-70
2023/07/08 00:29:56;;;;;;;;;;;;;;;;;;7366787;19;19922;-70
2023/07/08 00:32:22;;;;;;;;;;;;;;;;;;7366743;19;19926;-70
2023/07/08 00:34:47;;;;;;;;;;;;;;;;;;7365633;19;19919;-70
2023/07/08 00:37:12;;;;;;;;;;;;;;;;;;7363685;19;19929;-70
2023/07/08 00:39:38;;;;;;;;;;;;;;;;;;7386799;19;19929;-70
2023/07/08 00:42:13;;;;;;;;;;;;;;;;;;7366547;19;20281;-70
2023/07/08 00:44:39;;;;;;;;;;;;;;;;;;7366498;19;19983;-69
2023/07/08 00:47:07;;;;;;;;;;;;;;;;;;7365881;19;20379;-70
2023/07/08 00:49:45;;;;;;;;;;;;;;;;;;7366267;19;19918;-70
2023/07/08 00:52:15;;;;;;;;;;;;;;;;;;7365906;19;19932;-69
2023/07/08 00:54:41;;;;;;;;;;;;;;;;;;7386014;19;19986;-70
2023/07/08 00:57:06;;;;;;;;;;;;;;;;;;7363213;19;20342;-70
2023/07/08 00:59:37;;;;;;;;;;;;;;;;;;7363480;19;20385;-70
2023/07/08 01:02:04;;;;;;;;;;;;;;;;;;7365764;19;19926;-70
2023/07/08 01:04:42;;;;;;;;;;;;;;;;;;7366882;19;19915;-70
2023/07/08 01:07:08;;;;;;;;;;;;;;;;;;7364718;19;19919;-69
2023/07/08 01:09:35;;;;;;;;;;;;;;;;;;7385054;19;19922;-69
2023/07/08 01:12:02;;;;;;;;;;;;;;;;;;7363452;19;20054;-70
2023/07/08 01:14:31;;;;;;;;;;;;;;;;;;7364223;19;19982;-70
2023/07/08 01:16:56;;;;;;;;;;;;;;;;;;7366280;19;19926;-69
2023/07/08 01:19:31;;;;;;;;;;;;;;;;;;7372015;19;19927;-68
2023/07/08 01:21:57;;;;;;;;;;;;;;;;;;7371948;19;20310;-69
2023/07/08 01:24:22;;;;;;;;;;;;;;;;;;7393662;19;19914;-69
2023/07/08 01:26:48;;;;;;;;;;;;;;;;;;7370086;19;19922;-69
2023/07/08 01:29:13;;;;;;;;;;;;;;;;;;7372683;19;19946;-69
2023/07/08 01:31:38;;;;;;;;;;;;;;;;;;7370842;19;19926;-69
2023/07/08 01:34:04;;;;;;;;;;;;;;;;;;7370415;19;20002;-69
2023/07/08 01:36:31;;;;;;;;;;;;;;;;;;7389247;19;20344;-69
2023/07/08 01:38:56;;;;;;;;;;;;;;;;;;7370323;19;20371;-69
2023/07/08 01:41:21;;;;;;;;;;;;;;;;;;7368285;19;19922;-70
2023/07/08 01:43:46;;;;;;;;;;;;;;;;;;7371585;19;19931;-69
2023/07/08 01:46:21;;;;;;;;;;;;;;;;;;7371015;19;19919;-69
2023/07/08 01:48:50;;;;;;;;;;;;;;;;;;7369051;19;19937;-70
2023/07/08 01:51:15;;;;;;;;;;;;;;;;;;7392402;19;20368;-69
2023/07/08 01:53:42;;;;;;;;;;;;;;;;;;7373131;19;19915;-69
2023/07/08 01:56:07;;;;;;;;;;;;;;;;;;7373420;19;19926;-69
2023/07/08 01:58:33;;;;;;;;;;;;;;;;;;7368826;19;19943;-69
2023/07/08 02:00:59;;;;;;;;;;;;;;;;;;7369394;19;19919;-69
2023/07/08 02:03:25;;;;;;;;;;;;;;;;;;7393220;19;19922;-69
2023/07/08 02:05:50;;;;;;;;;;;;;;;;;;7370177;19;19926;-69
2023/07/08 02:08:15;;;;;;;;;;;;;;;;;;7370105;19;20273;-69
2023/07/08 02:10:41;;;;;;;;;;;;;;;;;;7370385;19;19910;-70
2023/07/08 02:13:07;;;;;;;;;;;;;;;;;;7371716;19;19919;-70
2023/07/08 02:15:32;;;;;;;;;;;;;;;;;;7391179;19;20015;-69
2023/07/08 02:17:57;;;;;;;;;;;;;;;;;;7367375;19;19922;-69
2023/07/08 02:20:23;;;;;;;;;;;;;;;;;;7368210;19;19936;-69
2023/07/08 02:22:48;;;;;;;;;;;;;;;;;;7367911;19;19918;-69
2023/07/08 02:25:14;;;;;;;;;;;;;;;;;;7368284;19;19931;-69
2023/07/08 02:27:42;;;;;;;;;;;;;;;;;;7390812;19;19931;-69
2023/07/08 02:30:08;;;;;;;;;;;;;;;;;;7367243;19;19919;-69
2023/07/08 02:32:38;;;;;;;;;;;;;;;;;;7369169;19;20006;-69
2023/07/08 02:35:04;;;;;;;;;;;;;;;;;;7368147;19;19911;-69
2023/07/08 02:37:30;;;;;;;;;;;;;;;;;;7367421;19;19922;-69
2023/07/08 02:39:55;;;;;;;;;;;;;;;;;;7369263;19;19918;-70
2023/07/08 02:42:20;;;;;;;;;;;;;;;;;;7391290;19;20391;-69
2023/07/08 02:44:45;;;;;;;;;;;;;;;;;;7368732;19;20326;-70
2023/07/08 02:47:10;;;;;;;;;;;;;;;;;;7367252;19;19930;-70
2023/07/08 02:49:36;;;;;;;;;;;;;;;;;;7369477;19;19919;-70
2023/07/08 02:52:01;;;;;;;;;;;;;;;;;;7367911;19;19924;-70
2023/07/08 02:54:26;;;;;;;;;;;;;;;;;;7390668;19;19922;-69
2023/07/08 02:56:51;;;;;;;;;;;;;;;;;;7366765;19;19915;-69
2023/07/08 02:59:17;;;;;;;;;;;;;;;;;;7368086;19;21608;-69
2023/07/08 03:01:42;;;;;;;;;;;;;;;;;;7368399;19;19915;-69
2023/07/08 03:04:08;;;;;;;;;;;;;;;;;;7370538;19;20266;-69
2023/07/08 03:06:34;;;;;;;;;;;;;;;;;;7393547;19;19923;-70
2023/07/08 03:08:59;;;;;;;;;;;;;;;;;;7370236;19;19960;-70
2023/07/08 03:11:24;;;;;;;;;;;;;;;;;;7367302;19;19919;-70
2023/07/08 03:13:49;;;;;;;;;;;;;;;;;;7370361;19;19915;-70
2023/07/08 03:16:15;;;;;;;;;;;;;;;;;;7369208;19;20856;-69
2023/07/08 03:18:45;;;;;;;;;;;;;;;;;;7387395;19;19938;-69
2023/07/08 03:21:12;;;;;;;;;;;;;;;;;;7365565;19;19926;-69
2023/07/08 03:23:37;;;;;;;;;;;;;;;;;;7364688;19;19915;-69
2023/07/08 03:26:02;;;;;;;;;;;;;;;;;;7366793;19;19923;-69
2023/07/08 03:28:28;;;;;;;;;;;;;;;;;;7366699;19;19923;-69
2023/07/08 03:30:53;;;;;;;;;;;;;;;;;;7370404;19;19986;-69
2023/07/08 03:33:19;;;;;;;;;;;;;;;;;;7396475;19;20022;-69
2023/07/08 03:35:44;;;;;;;;;;;;;;;;;;7375062;19;20322;-69
2023/07/08 03:38:10;;;;;;;;;;;;;;;;;;7369186;19;19919;-69
2023/07/08 03:40:35;;;;;;;;;;;;;;;;;;7368250;19;19932;-68
2023/07/08 03:43:00;;;;;;;;;;;;;;;;;;7370485;19;19915;-69
2023/07/08 03:45:25;;;;;;;;;;;;;;;;;;7392565;19;19939;-68
2023/07/08 03:47:51;;;;;;;;;;;;;;;;;;7368985;19;19915;-68
2023/07/08 03:50:21;;;;;;;;;;;;;;;;;;7370769;19;19945;-70
2023/07/08 03:52:47;;;;;;;;;;;;;;;;;;7371457;19;19918;-70
2023/07/08 03:55:12;;;;;;;;;;;;;;;;;;7374439;19;19919;-69
2023/07/08 03:57:38;;;;;;;;;;;;;;;;;;7391435;19;19911;-70
2023/07/08 04:00:03;;;;;;;;;;;;;;;;;;7371990;19;19919;-70
2023/07/08 04:02:28;;;;;;;;;;;;;;;;;;7370069;19;19943;-70
2023/07/08 04:04:54;;;;;;;;;;;;;;;;;;7369751;19;20364;-69
2023/07/08 04:07:19;;;;;;;;;;;;;;;;;;7368784;19;19939;-70
2023/07/08 04:09:49;;;;;;;;;;;;;;;;;;7370783;19;19926;-69
2023/07/08 04:12:14;;;;;;;;;;;;;;;;;;7389524;19;20246;-70
2023/07/08 04:14:42;;;;;;;;;;;;;;;;;;7369529;19;19919;-70
2023/07/08 04:17:08;;;;;;;;;;;;;;;;;;7364944;19;20023;-70
2023/07/08 04:19:34;;;;;;;;;;;;;;;;;;7364343;19;19930;-70
2023/07/08 04:22:00;;;;;;;;;;;;;;;;;;7366381;19;19923;-69
2023/07/08 04:24:26;;;;;;;;;;;;;;;;;;7388189;19;20326;-69
2023/07/08 04:26:52;;;;;;;;;;;;;;;;;;7368070;19;19951;-69
2023/07/08 04:29:18;;;;;;;;;;;;;;;;;;7369440;19;19915;-69
2023/07/08 04:31:43;;;;;;;;;;;;;;;;;;7366599;19;19926;-69
2023/07/08 04:34:09;;;;;;;;;;;;;;;;;;7366741;19;20007;-69
2023/07/08 04:36:35;;;;;;;;;;;;;;;;;;7386765;19;20552;-69
2023/07/08 04:39:01;;;;;;;;;;;;;;;;;;7367045;19;19915;-69
2023/07/08 04:41:26;;;;;;;;;;;;;;;;;;7365713;19;19923;-69
2023/07/08 04:43:53;;;;;;;;;;;;;;;;;;7367199;19;19915;-69
2023/07/08 04:46:34;;;;;;;;;;;;;;;;;;7366131;19;19998;-70
2023/07/08 04:49:00;;;;;;;;;;;;;;;;;;7367506;19;19919;-70
2023/07/08 04:51:25;;;;;;;;;;;;;;;;;;7383719;19;19921;-70
2023/07/08 04:53:51;;;;;;;;;;;;;;;;;;7365759;19;19940;-70
2023/07/08 04:56:16;;;;;;;;;;;;;;;;;;7366788;19;19966;-69
2023/07/08 04:58:41;;;;;;;;;;;;;;;;;;7363721;19;19926;-70
2023/07/08 05:01:07;;;;;;;;;;;;;;;;;;7366281;19;19943;-70
2023/07/08 05:03:32;;;;;;;;;;;;;;;;;;7388443;19;19979;-70
2023/07/08 05:05:57;;;;;;;;;;;;;;;;;;7365899;19;19923;-69
2023/07/08 05:08:22;;;;;;;;;;;;;;;;;;7364701;19;19950;-69
2023/07/08 05:10:47;;;;;;;;;;;;;;;;;;7364878;19;19923;-69
2023/07/08 05:13:13;;;;;;;;;;;;;;;;;;7366278;19;19991;-69
2023/07/08 05:15:38;;;;;;;;;;;;;;;;;;7388291;19;19930;-69
2023/07/08 05:18:03;;;;;;;;;;;;;;;;;;7364756;19;19918;-69
2023/07/08 05:20:30;;;;;;;;;;;;;;;;;;7362665;19;19975;-69
2023/07/08 05:22:56;;;;;;;;;;;;;;;;;;7364635;19;19927;-70
2023/07/08 05:25:21;;;;;;;;;;;;;;;;;;7366377;19;19926;-69
2023/07/08 05:27:47;;;;;;;;;;;;;;;;;;7364248;19;19982;-69
2023/07/08 05:30:14;;;;;;;;;;;;;;;;;;7384972;19;19911;-69
2023/07/08 05:32:39;;;;;;;;;;;;;;;;;;7363735;19;19963;-70
2023/07/08 05:35:04;;;;;;;;;;;;;;;;;;7363787;19;20342;-70
2023/07/08 05:37:30;;;;;;;;;;;;;;;;;;7364199;19;19957;-70
2023/07/08 05:39:55;;;;;;;;;;;;;;;;;;7363556;19;20676;-69
2023/07/08 05:42:21;;;;;;;;;;;;;;;;;;7386649;19;19931;-68
2023/07/08 05:44:46;;;;;;;;;;;;;;;;;;7360867;19;20516;-69
2023/07/08 05:47:12;;;;;;;;;;;;;;;;;;7361912;19;19923;-69
2023/07/08 05:49:38;;;;;;;;;;;;;;;;;;7362774;19;20483;-69
2023/07/08 05:52:08;;;;;;;;;;;;;;;;;;7363199;19;19912;-70
2023/07/08 05:54:33;;;;;;;;;;;;;;;;;;7385004;19;19926;-70
2023/07/08 05:56:58;;;;;;;;;;;;;;;;;;7362699;19;19926;-70
2023/07/08 05:59:24;;;;;;;;;;;;;;;;;;7363944;19;20000;-69
2023/07/08 06:01:49;;;;;;;;;;;;;;;;;;7359775;19;19926;-69
2023/07/08 06:04:14;;;;;;;;;;;;;;;;;;7369505;19;19918;-69
2023/07/08 06:06:39;;;;;;;;;;;;;;;;;;7391541;19;19949;-69
2023/07/08 06:09:05;;;;;;;;;;;;;;;;;;7371073;19;19947;-69
2023/07/08 06:11:30;;;;;;;;;;;;;;;;;;7370699;19;19915;-68
2023/07/08 06:13:55;;;;;;;;;;;;;;;;;;7371025;19;20330;-68
2023/07/08 06:16:20;;;;;;;;;;;;;;;;;;7372249;19;20345;-69
2023/07/08 06:18:46;;;;;;;;;;;;;;;;;;7367900;19;19914;-70
2023/07/08 06:21:11;;;;;;;;;;;;;;;;;;7392174;19;19978;-69
2023/07/08 06:23:36;;;;;;;;;;;;;;;;;;7371773;19;19926;-70
2023/07/08 06:26:01;;;;;;;;;;;;;;;;;;7372991;19;19923;-69
2023/07/08 06:28:27;;;;;;;;;;;;;;;;;;7370273;19;19930;-70
2023/07/08 06:30:52;;;;;;;;;;;;;;;;;;7369028;19;19986;-69
2023/07/08 06:33:17;;;;;;;;;;;;;;;;;;7394004;19;19922;-70
2023/07/08 06:35:43;;;;;;;;;;;;;;;;;;7372059;19;19918;-69
2023/07/08 06:38:08;;;;;;;;;;;;;;;;;;7367810;19;19921;-70
2023/07/08 06:40:34;;;;;;;;;;;;;;;;;;7368856;19;20407;-69
2023/07/08 06:42:59;;;;;;;;;;;;;;;;;;7371399;19;19919;-69
2023/07/08 06:45:25;;;;;;;;;;;;;;;;;;7393109;19;19915;-70
2023/07/08 06:47:50;;;;;;;;;;;;;;;;;;7368967;19;19914;-70
2023/07/08 06:50:15;;;;;;;;;;;;;;;;;;7370337;19;19925;-69
2023/07/08 06:52:41;;;;;;;;;;;;;;;;;;7368718;19;19939;-70
2023/07/08 06:55:07;;;;;;;;;;;;;;;;;;7369390;19;20338;-70
2023/07/08 06:57:33;;;;;;;;;;;;;;;;;;7391670;19;19911;-69
2023/07/08 06:59:58;;;;;;;;;;;;;;;;;;7369360;19;19930;-69
2023/07/08 07:02:24;;;;;;;;;;;;;;;;;;7369801;19;20306;-69
2023/07/08 07:04:49;;;;;;;;;;;;;;;;;;7370323;19;20242;-70
2023/07/08 07:07:14;;;;;;;;;;;;;;;;;;7370852;19;19923;-70
2023/07/08 07:09:39;;;;;;;;;;;;;;;;;;7391438;19;19919;-70
2023/07/08 07:12:05;;;;;;;;;;;;;;;;;;7370513;19;19915;-69
2023/07/08 07:14:31;;;;;;;;;;;;;;;;;;7368637;19;19986;-70
2023/07/08 07:16:56;;;;;;;;;;;;;;;;;;7368733;19;19919;-69
2023/07/08 07:19:21;;;;;;;;;;;;;;;;;;7370221;19;19978;-70
2023/07/08 07:21:46;;;;;;;;;;;;;;;;;;7370624;19;19915;-68
2023/07/08 07:24:12;;;;;;;;;;;;;;;;;;7393383;19;19913;-69
2023/07/08 07:26:37;;;;;;;;;;;;;;;;;;7373331;19;19911;-70
2023/07/08 07:29:02;;;;;;;;;;;;;;;;;;7371677;19;20108;-68
2023/07/08 07:31:28;;;;;;;;;;;;;;;;;;7370815;19;19919;-70
2023/07/08 07:33:53;;;;;;;;;;;;;;;;;;7373006;19;19919;-71
2023/07/08 07:36:18;;;;;;;;;;;;;;;;;;7383853;19;19950;-70
2023/07/08 07:38:43;;;;;;;;;;;;;;;;;;7372106;19;19926;-70
2023/07/08 07:41:10;;;;;;;;;;;;;;;;;;7370459;19;19927;-70
2023/07/08 07:43:35;;;;;;;;;;;;;;;;;;7372391;19;19926;-71
2023/07/08 07:46:01;;;;;;;;;;;;;;;;;;7370773;19;19915;-71
2023/07/08 07:48:26;;;;;;;;;;;;;;;;;;7390010;19;20265;-71
2023/07/08 07:50:52;;;;;;;;;;;;;;;;;;7363265;19;20002;-72
2023/07/08 07:53:17;;;;;;;;;;;;;;;;;;7365914;19;19923;-71
2023/07/08 07:55:43;;;;;;;;;;;;;;;;;;7367075;19;19918;-70
2023/07/08 07:58:11;;;;;;;;;;;;;;;;;;7365356;19;19923;-71
2023/07/08 08:00:36;;;;;;;;;;;;;;;;;;7388501;19;19974;-71
2023/07/08 08:03:01;;;;;;;;;;;;;;;;;;7366930;19;20430;-72
2023/07/08 08:05:26;;;;;;;;;;;;;;;;;;7365461;19;19930;-70
2023/07/08 08:07:52;;;;;;;;;;;;;;;;;;7365158;19;19922;-69
2023/07/08 08:10:17;;;;;;;;;;;;;;;;;;7365389;19;20338;-70
2023/07/08 08:12:42;;;;;;;;;;;;;;;;;;7380340;19;19923;-71
2023/07/08 08:15:07;;;;;;;;;;;;;;;;;;7371497;19;20469;-71
2023/07/08 08:17:33;;;;;;;;;;;;;;;;;;7363164;19;20292;-71
2023/07/08 08:19:58;;;;;;;;;;;;;;;;;;7363024;19;19926;-69
2023/07/08 08:22:23;;;;;;;;;;;;;;;;;;7363961;19;19974;-71
2023/07/08 08:24:49;;;;;;;;;;;;;;;;;;7367113;19;19927;-69
2023/07/08 08:27:14;;;;;;;;;;;;;;;;;;7387803;19;19925;-69
2023/07/08 08:29:39;;;;;;;;;;;;;;;;;;7366588;19;19978;-69
2023/07/08 08:32:05;;;;;;;;;;;;;;;;;;7367213;19;19939;-70
2023/07/08 08:34:31;;;;;;;;;;;;;;;;;;7365332;19;19919;-71
2023/07/08 08:36:57;;;;;;;;;;;;;;;;;;7362283;19;19922;-70
2023/07/08 08:39:22;;;;;;;;;;;;;;;;;;7385392;19;20261;-71
2023/07/08 08:41:49;;;;;;;;;;;;;;;;;;7363702;19;19915;-70
2023/07/08 08:44:16;;;;;;;;;;;;;;;;;;7366622;19;19915;-70
2023/07/08 08:46:46;;;;;;;;;;;;;;;;;;7364259;19;20006;-70
2023/07/08 08:49:11;;;;;;;;;;;;;;;;;;7366936;19;19915;-70
2023/07/08 08:51:37;;;;;;;;;;;;;;;;;;7390872;19;19925;-70
2023/07/08 08:54:02;;;;;;;;;;;;;;;;;;7368878;19;19919;-70
2023/07/08 08:56:28;;;;;;;;;;;;;;;;;;7369942;19;19920;-70
2023/07/08 08:59:09;;;;;;;;;;;;;;;;;;7368013;19;20008;-71
2023/07/08 09:01:34;;;;;;;;;;;;;;;;;;7365530;19;20334;-71
2023/07/08 09:04:05;;;;;;;;;;;;;;;;;;7366098;19;19918;-71
2023/07/08 09:06:32;;;;;;;;;;;;;;;;;;7387814;19;19982;-70
2023/07/08 09:09:01;;;;;;;;;;;;;;;;;;7366989;19;20548;-70
2023/07/08 09:11:26;;;;;;;;;;;;;;;;;;7366209;19;19933;-70
2023/07/08 09:13:52;;;;;;;;;;;;;;;;;;7366371;19;19978;-70
2023/07/08 09:16:24;;;;;;;;;;;;;;;;;;7366040;19;19922;-70
2023/07/08 09:18:56;;;;;;;;;;;;;;;;;;7365172;19;19970;-71
2023/07/08 09:21:27;;;;;;;;;;;;;;;;;;7388093;19;19923;-71
2023/07/08 09:23:55;;;;;;;;;;;;;;;;;;7367871;19;19911;-73
2023/07/08 09:26:23;;;;;;;;;;;;;;;;;;7367316;19;19922;-70
2023/07/08 09:28:48;;;;;;;;;;;;;;;;;;7366902;19;19936;-70
2023/07/08 09:31:36;;;;;;;;;;;;;;;;;;7367266;19;19915;-70
2023/07/08 09:34:15;;;;;;;;;;;;;;;;;;7369003;19;20393;-71
2023/07/08 09:36:42;;;;;;;;;;;;;;;;;;7388703;19;19990;-69
2023/07/08 09:39:12;;;;;;;;;;;;;;;;;;7378832;19;20073;-70
2023/07/08 09:41:38;;;;;;;;;;;;;;;;;;7373396;19;20728;-69
2023/07/08 09:44:13;;;;;;;;;;;;;;;;;;7373858;19;19915;-70
2023/07/08 09:46:39;;;;;;;;;;;;;;;;;;7373016;19;19959;-70
2023/07/08 09:49:24;;;;;;;;;;;;;;;;;;7373277;19;20275;-70
2023/07/08 09:51:50;;;;;;;;;;;;;;;;;;7373497;19;19919;-70
2023/07/08 09:54:16;;;;;;;;;;;;;;;;;;7394804;19;19922;-70
2023/07/08 09:56:43;;;;;;;;;;;;;;;;;;7373175;19;19927;-70
2023/07/08 09:59:11;;;;;;;;;;;;;;;;;;7373639;19;19943;-71
2023/07/08 10:01:36;;;;;;;;;;;;;;;;;;7366722;19;19942;-70
2023/07/08 10:04:03;;;;;;;;;;;;;;;;;;7373038;19;20283;-71
2023/07/08 10:06:32;;;;;;;;;;;;;;;;;;7395063;19;19947;-70
2023/07/08 10:09:02;;;;;;;;;;;;;;;;;;7373500;19;20303;-70
2023/07/08 10:11:37;;;;;;;;;;;;;;;;;;7372611;19;19918;-70
2023/07/08 10:14:18;;;;;;;;;;;;;;;;;;7373723;19;19911;-70
2023/07/08 10:16:43;;;;;;;;;;;;;;;;;;7372379;19;22089;-69
2023/07/08 10:19:13;;;;;;;;;;;;;;;;;;7373935;19;19926;-69
2023/07/08 10:21:38;;;;;;;;;;;;;;;;;;7395443;19;19922;-69
2023/07/08 10:24:22;;;;;;;;;;;;;;;;;;7373709;19;20338;-71
2023/07/08 10:26:50;;;;;;;;;;;;;;;;;;7371776;19;19947;-70
2023/07/08 10:29:32;;;;;;;;;;;;;;;;;;7373423;19;19911;-70
2023/07/08 10:32:00;;;;;;;;;;;;;;;;;;7372188;19;20268;-70
2023/07/08 10:34:25;;;;;;;;;;;;;;;;;;7372748;19;20300;-70
2023/07/08 10:36:50;;;;;;;;;;;;;;;;;;7371927;19;19919;-70
2023/07/08 10:39:34;;;;;;;;;;;;;;;;;;7394111;19;19914;-69
2023/07/08 10:42:16;;;;;;;;;;;;;;;;;;7372418;19;20345;-70
2023/07/08 10:45:01;;;;;;;;;;;;;;;;;;7371655;19;20267;-70
2023/07/08 10:47:26;;;;;;;;;;;;;;;;;;7370562;19;19935;-70
2023/07/08 10:50:07;;;;;;;;;;;;;;;;;;7369160;19;19922;-70
2023/07/08 10:52:42;;;;;;;;;;;;;;;;;;7373264;19;19947;-70
2023/07/08 10:55:07;;;;;;;;;;;;;;;;;;7371323;19;19964;-69
2023/07/08 10:57:42;;;;;;;;;;;;;;;;;;7392796;19;19923;-70
2023/07/08 11:00:22;;;;;;;;;;;;;;;;;;7369343;19;19930;-70
2023/07/08 11:03:06;;;;;;;;;;;;;;;;;;7371769;19;19911;-70
2023/07/08 11:05:37;;;;;;;;;;;;;;;;;;7372416;19;20340;-69
2023/07/08 11:08:07;;;;;;;;;;;;;;;;;;7374675;19;19919;-70
2023/07/08 11:10:40;;;;;;;;;;;;;;;;;;7373242;19;20568;-70
2023/07/08 11:13:07;;;;;;;;;;;;;;;;;;7371214;19;20386;-70
2023/07/08 11:15:40;;;;;;;;;;;;;;;;;;7394178;19;19927;-70
2023/07/08 11:18:05;;;;;;;;;;;;;;;;;;7369395;19;20409;-70
2023/07/08 11:20:51;;;;;;;;;;;;;;;;;;7370236;19;19957;-70
2023/07/08 11:23:23;;;;;;;;;;;;;;;;;;7370921;19;19919;-69
2023/07/08 11:25:49;;;;;;;;;;;;;;;;;;7371401;19;19992;-70
2023/07/08 11:28:16;;;;;;;;;;;;;;;;;;7367841;19;19919;-70
2023/07/08 11:30:42;;;;;;;;;;;;;;;;;;7391477;19;19922;-70
2023/07/08 11:33:10;;;;;;;;;;;;;;;;;;7370353;19;20578;-68
2023/07/08 11:35:41;;;;;;;;;;;;;;;;;;7369134;19;19933;-68
2023/07/08 11:38:09;;;;;;;;;;;;;;;;;;7367984;19;19919;-68
2023/07/08 11:40:48;;;;;;;;;;;;;;;;;;7367473;19;19925;-68
2023/07/08 11:43:14;;;;;;;;;;;;;;;;;;7370573;19;19919;-67
2023/07/08 11:45:43;;;;;;;;;;;;;;;;;;7393270;19;19930;-68
2023/07/08 11:48:20;;;;;;;;;;;;;;;;;;7368986;19;19915;-68
2023/07/08 11:50:46;;;;;;;;;;;;;;;;;;7368205;19;20302;-68
2023/07/08 11:53:14;;;;;;;;;;;;;;;;;;7368613;19;19925;-68
2023/07/08 11:55:42;;;;;;;;;;;;;;;;;;7368684;19;19922;-67
2023/07/08 11:58:20;;;;;;;;;;;;;;;;;;7368742;19;19992;-68
2023/07/08 12:00:51;;;;;;;;;;;;;;;;;;7369378;19;19986;-68
2023/07/08 12:03:21;;;;;;;;;;;;;;;;;;7396819;19;19926;-69
2023/07/08 12:05:46;;;;;;;;;;;;;;;;;;7372525;19;19929;-68
2023/07/08 12:08:13;;;;;;;;;;;;;;;;;;7369566;19;19922;-68
2023/07/08 12:10:40;;;;;;;;;;;;;;;;;;7368828;19;19949;-68
2023/07/08 12:13:11;;;;;;;;;;;;;;;;;;7370083;19;19923;-68
2023/07/08 12:15:36;;;;;;;;;;;;;;;;;;7392296;19;19922;-68
2023/07/08 12:18:09;;;;;;;;;;;;;;;;;;7367979;19;19919;-68
2023/07/08 12:20:36;;;;;;;;;;;;;;;;;;7369284;19;19918;-68
2023/07/08 12:23:02;;;;;;;;;;;;;;;;;;7370020;19;20235;-68
2023/07/08 12:25:31;;;;;;;;;;;;;;;;;;7368603;19;19915;-69
2023/07/08 12:27:57;;;;;;;;;;;;;;;;;;7368337;19;19941;-68
2023/07/08 12:30:22;;;;;;;;;;;;;;;;;;7391326;19;20370;-67
2023/07/08 12:32:47;;;;;;;;;;;;;;;;;;7370153;19;20366;-67
2023/07/08 12:35:32;;;;;;;;;;;;;;;;;;7371296;19;19936;-67
2023/07/08 12:38:17;;;;;;;;;;;;;;;;;;7370005;19;20019;-68
2023/07/08 12:40:46;;;;;;;;;;;;;;;;;;7366449;19;20218;-67
2023/07/08 12:43:12;;;;;;;;;;;;;;;;;;7367237;19;20356;-69
2023/07/08 12:45:37;;;;;;;;;;;;;;;;;;7389848;19;19911;-67
2023/07/08 12:48:02;;;;;;;;;;;;;;;;;;7366017;19;19926;-67
2023/07/08 12:50:28;;;;;;;;;;;;;;;;;;7367021;19;20341;-68
2023/07/08 12:52:53;;;;;;;;;;;;;;;;;;7365727;19;19911;-68
2023/07/08 12:55:19;;;;;;;;;;;;;;;;;;7368151;19;19918;-67
2023/07/08 12:57:46;;;;;;;;;;;;;;;;;;7366538;19;19926;-67
2023/07/08 13:00:16;;;;;;;;;;;;;;;;;;7388288;19;19911;-68
2023/07/08 13:02:44;;;;;;;;;;;;;;;;;;7367835;19;19923;-67
2023/07/08 13:05:10;;;;;;;;;;;;;;;;;;7366700;19;19914;-67
2023/07/08 13:07:38;;;;;;;;;;;;;;;;;;7366335;19;19972;-69
2023/07/08 13:10:07;;;;;;;;;;;;;;;;;;7366920;19;19916;-67
2023/07/08 13:12:35;;;;;;;;;;;;;;;;;;7387598;19;19939;-67
2023/07/08 13:15:01;;;;;;;;;;;;;;;;;;7367298;19;19923;-68
2023/07/08 13:17:27;;;;;;;;;;;;;;;;;;7366073;19;19930;-68
2023/07/08 13:19:52;;;;;;;;;;;;;;;;;;7366461;19;19941;-68
2023/07/08 13:22:21;;;;;;;;;;;;;;;;;;7367285;19;19922;-68
2023/07/08 13:24:47;;;;;;;;;;;;;;;;;;7369474;19;19952;-66
2023/07/08 13:27:16;;;;;;;;;;;;;;;;;;7390955;19;19994;-67
2023/07/08 13:29:42;;;;;;;;;;;;;;;;;;7365346;19;20353;-68
2023/07/08 13:32:09;;;;;;;;;;;;;;;;;;7368255;19;19923;-67
2023/07/08 13:34:35;;;;;;;;;;;;;;;;;;7367068;19;20286;-67
2023/07/08 13:37:01;;;;;;;;;;;;;;;;;;7367160;19;19911;-67
2023/07/08 13:39:28;;;;;;;;;;;;;;;;;;7387538;19;19927;-67
2023/07/08 13:41:54;;;;;;;;;;;;;;;;;;7366814;19;19915;-67
2023/07/08 13:44:19;;;;;;;;;;;;;;;;;;7367123;19;19971;-67
2023/07/08 13:46:52;;;;;;;;;;;;;;;;;;7368212;19;20034;-66
2023/07/08 13:49:35;;;;;;;;;;;;;;;;;;7369941;19;20512;-68
2023/07/08 13:52:08;;;;;;;;;;;;;;;;;;7369902;19;19926;-68
2023/07/08 13:54:37;;;;;;;;;;;;;;;;;;7390929;19;19948;-68
2023/07/08 13:57:02;;;;;;;;;;;;;;;;;;7369187;19;19976;-68
2023/07/08 13:59:28;;;;;;;;;;;;;;;;;;7369020;19;19918;-67
2023/07/08 14:01:55;;;;;;;;;;;;;;;;;;7368287;19;20551;-68
2023/07/08 14:04:25;;;;;;;;;;;;;;;;;;7365551;19;19982;-68
2023/07/08 14:06:50;;;;;;;;;;;;;;;;;;7366273;19;19952;-68
2023/07/08 14:09:20;;;;;;;;;;;;;;;;;;7387678;19;19915;-68
2023/07/08 14:11:46;;;;;;;;;;;;;;;;;;7365187;19;19927;-67
2023/07/08 14:14:11;;;;;;;;;;;;;;;;;;7367423;19;19970;-67
2023/07/08 14:16:42;;;;;;;;;;;;;;;;;;7367797;19;20373;-67
2023/07/08 14:19:12;;;;;;;;;;;;;;;;;;7367846;19;19927;-67
2023/07/08 14:21:37;;;;;;;;;;;;;;;;;;7389932;19;19952;-67
2023/07/08 14:24:08;;;;;;;;;;;;;;;;;;7371866;19;20445;-67
2023/07/08 14:26:33;;;;;;;;;;;;;;;;;;7373841;19;19922;-67
2023/07/08 14:28:58;;;;;;;;;;;;;;;;;;7386552;19;19919;-67
2023/07/08 14:31:25;;;;;;;;;;;;;;;;;;7372442;19;19923;-68
2023/07/08 14:33:54;;;;;;;;;;;;;;;;;;7372690;19;19923;-68
2023/07/08 14:36:19;;;;;;;;;;;;;;;;;;7393464;19;20562;-68
2023/07/08 14:38:45;;;;;;;;;;;;;;;;;;7372123;19;19965;-68
2023/07/08 14:41:10;;;;;;;;;;;;;;;;;;7371769;19;19938;-68
2023/07/08 14:43:39;;;;;;;;;;;;;;;;;;7372594;19;19930;-68
2023/07/08 14:46:04;;;;;;;;;;;;;;;;;;7372060;19;19915;-68
2023/07/08 14:48:30;;;;;;;;;;;;;;;;;;7391808;19;19994;-68
2023/07/08 14:50:56;;;;;;;;;;;;;;;;;;7369181;19;19947;-68
2023/07/08 14:53:21;;;;;;;;;;;;;;;;;;7372000;19;19927;-68
2023/07/08 14:55:48;;;;;;;;;;;;;;;;;;7370604;19;19910;-68
2023/07/08 14:58:20;;;;;;;;;;;;;;;;;;7370770;19;19919;-68
2023/07/08 15:00:45;;;;;;;;;;;;;;;;;;7371814;19;19925;-68
2023/07/08 15:03:10;;;;;;;;;;;;;;;;;;7393763;19;20533;-67
2023/07/08 15:05:35;;;;;;;;;;;;;;;;;;7370774;19;19952;-67
2023/07/08 15:08:01;;;;;;;;;;;;;;;;;;7371671;19;20054;-67
2023/07/08 15:10:28;;;;;;;;;;;;;;;;;;7371062;19;19918;-67
2023/07/08 15:12:54;;;;;;;;;;;;;;;;;;7372610;19;19956;-67
2023/07/08 15:15:23;;;;;;;;;;;;;;;;;;7392681;19;19932;-68
2023/07/08 15:17:48;;;;;;;;;;;;;;;;;;7368787;19;19953;-67
2023/07/08 15:20:14;;;;;;;;;;;;;;;;;;7368498;19;19914;-68
2023/07/08 15:22:40;;;;;;;;;;;;;;;;;;7371007;19;19934;-67
2023/07/08 15:25:06;;;;;;;;;;;;;;;;;;7368559;19;19919;-59
2023/07/08 15:27:31;;;;;;;;;;;;;;;;;;7389898;19;19922;-63
2023/07/08 15:29:56;;;;;;;;;;;;;;;;;;7368944;19;19926;-65
2023/07/08 15:32:21;;;;;;;;;;;;;;;;;;7358714;19;19923;-66
2023/07/08 15:34:47;;;;;;;;;;;;;;;;;;7364382;19;19922;-64
2023/07/08 15:37:12;;;;;;;;;;;;;;;;;;7365439;19;20380;-65
2023/07/08 15:39:37;;;;;;;;;;;;;;;;;;7387554;19;19933;-65
2023/07/08 15:42:03;;;;;;;;;;;;;;;;;;7365347;19;20334;-65
2023/07/08 15:44:28;;;;;;;;;;;;;;;;;;7367606;19;19911;-65
2023/07/08 15:46:53;;;;;;;;;;;;;;;;;;7369700;19;20243;-65
2023/07/08 15:49:20;;;;;;;;;;;;;;;;;;7373178;19;19923;-66
2023/07/08 15:51:45;;;;;;;;;;;;;;;;;;7371780;19;19915;-65
2023/07/08 15:54:11;;;;;;;;;;;;;;;;;;7392344;19;19922;-64
2023/07/08 15:56:37;;;;;;;;;;;;;;;;;;7368793;19;19929;-64
2023/07/08 15:59:02;;;;;;;;;;;;;;;;;;7367672;19;19922;-66
2023/07/08 16:01:28;;;;;;;;;;;;;;;;;;7366891;19;19915;-66
2023/07/08 16:03:53;;;;;;;;;;;;;;;;;;7366564;19;19918;-66
2023/07/08 16:06:18;;;;;;;;;;;;;;;;;;7390944;19;19943;-65
2023/07/08 16:08:44;;;;;;;;;;;;;;;;;;7368154;19;19926;-65
2023/07/08 16:11:11;;;;;;;;;;;;;;;;;;7369141;19;19923;-64
2023/07/08 16:13:37;;;;;;;;;;;;;;;;;;7370078;19;19919;-64
2023/07/08 16:16:02;;;;;;;;;;;;;;;;;;7367734;19;19924;-68
2023/07/08 16:18:28;;;;;;;;;;;;;;;;;;7388532;19;19923;-65
2023/07/08 16:20:53;;;;;;;;;;;;;;;;;;7365973;19;19931;-65
2023/07/08 16:23:18;;;;;;;;;;;;;;;;;;7368073;19;19935;-65
2023/07/08 16:25:48;;;;;;;;;;;;;;;;;;7366635;19;19982;-64
2023/07/08 16:28:22;;;;;;;;;;;;;;;;;;7365737;19;19915;-66
2023/07/08 16:30:48;;;;;;;;;;;;;;;;;;7364493;19;20329;-65
2023/07/08 16:33:13;;;;;;;;;;;;;;;;;;7388475;19;19998;-66
2023/07/08 16:35:38;;;;;;;;;;;;;;;;;;7366594;19;19910;-66
2023/07/08 16:38:03;;;;;;;;;;;;;;;;;;7365808;19;20059;-66
2023/07/08 16:40:29;;;;;;;;;;;;;;;;;;7364393;19;19926;-67
2023/07/08 16:42:55;;;;;;;;;;;;;;;;;;7365346;19;19911;-66
2023/07/08 16:45:21;;;;;;;;;;;;;;;;;;7386510;19;20425;-64